Alexandria International Airport
KAEX : now visible

Airfield :











YOU CAN JOIN US ON...

 
LOGIN :

Register | Disclaimer

   EN    FR    IT 

 









Legend :    VFR   Marginal VFR   IFR   Intensive IFR   Very Intensive IFR
Visi :
Ceiling :
>= 8 km
>= 3000ft
5 to 8 km
1000 to 3000 ft
1500m to 5 km
500 to 1000 ft
800 to 1500m
200 to 500 ft
< 800m
< 200 ft
Symbols :   Thunderstorms  Fog  Heavy snow  Heavy precipitations  Wind > 20 kt






- Airport Elevation : 89 ft
- IATA code : AEX


KAEX - Alexandria International

CURRENT METAR :
  • 251853Z 00000KT 10SM BKN017 OVC034 17/12 A2999 RMK AO2 SLP158 T01720122

EXPIRED METARs :
  • 251753Z 00000KT 10SM OVC015 17/12 A3002 RMK AO2 SLP168 T01670117 10167 20122 58005
  • 251737Z 34003KT 10SM OVC016 17/12 A3002 RMK AO2 T01670117
  • 251728Z 00000KT 10SM OVC014 17/12 A3002 RMK AO2 T01670117
  • 251717Z VRB03KT 10SM OVC015 16/12 A3002 RMK AO2 T01610117
  • 251653Z 04005KT 10SM OVC013 16/12 A3003 RMK AO2 SLP171 T01560117

TAF KAEX
Valid from the 25 at 18:00 until the 26 at 18:00 UTC


251726Z 2518/2618 VRB04KT P6SM BKN015
TEMPO 2609/2613 4SM BR BKN007
KZHU FIR / North America



MET'MAP, your aeronautical weather chart ! - Copyright ORBIFLY December 2007 - Disclaimer

ORBIFLY MET'MAP TEAM :

Programming & Development : Alexandra Zaïnal
Concept & original design : Baudouin d'Aumeries
Assistance for programming : Marc-Olivier Méhu
Technical & hardware support : Manuel Goepfert

Contact : metmap@orbifly.com




SOURCES & CREDITS :

   NOAA       Earth
Advisory